Nottingham, Pennsylvania
Current Conditions -  °F | °C
As of 12:55 AM on Tuesday 27 Jan 2015 (Local Time) from KMQS Reporting Station
Overcast Overcast  
Wind Chill: 13°   Ceiling: 5000
Heat Index: 25°   Visibility: 10mi
Dew Point: 19°   Wind: 13mph
Humidity: 80%   Direction: 20°NNE
Pressure: 29.68"   Gusts: 21mph
Location:  39.76°N, 76.01°W
Report Text: KMQS 270555Z AUTO 02011G18KT 10SM SCT032 OVC050 M04/M07 A2968 RMK AO2
Loading
Personal Weather Stations






























Interactive Weather Map New forecast layout! Learn more

10-Day Weather Forecast

Advertisements
Track Severe Weather on mobile